sensor_id;sensor_type;location;lat;lon;timestamp;temperature;humidity
15044;DHT22;7619;48.562;8.910;2022-11-02T00:08:40;6.30;99.90
15044;DHT22;7619;48.562;8.910;2022-11-02T00:11:09;6.60;99.90
15044;DHT22;7619;48.562;8.910;2022-11-02T00:16:08;6.30;99.90
15044;DHT22;7619;48.562;8.910;2022-11-02T00:18:39;6.30;99.90
15044;DHT22;7619;48.562;8.910;2022-11-02T00:21:10;6.20;99.90
15044;DHT22;7619;48.562;8.910;2022-11-02T00:28:37;6.20;99.90
15044;DHT22;7619;48.562;8.910;2022-11-02T00:40:59;6.40;99.90
15044;DHT22;7619;48.562;8.910;2022-11-02T00:43:28;6.30;99.90
15044;DHT22;7619;48.562;8.910;2022-11-02T00:48:25;6.40;99.90
15044;DHT22;7619;48.562;8.910;2022-11-02T00:53:23;6.30;99.90
15044;DHT22;7619;48.562;8.910;2022-11-02T00:55:52;6.10;99.90
15044;DHT22;7619;48.562;8.910;2022-11-02T00:58:21;6.10;99.90
15044;DHT22;7619;48.562;8.910;2022-11-02T01:00:51;6.10;99.90
15044;DHT22;7619;48.562;8.910;2022-11-02T01:03:19;6.00;99.90
15044;DHT22;7619;48.562;8.910;2022-11-02T01:05:48;6.00;99.90
15044;DHT22;7619;48.562;8.910;2022-11-02T01:08:17;6.00;99.90
15044;DHT22;7619;48.562;8.910;2022-11-02T01:10:46;6.00;99.90
15044;DHT22;7619;48.562;8.910;2022-11-02T01:13:15;5.90;99.90
15044;DHT22;7619;48.562;8.910;2022-11-02T01:15:44;5.80;99.90
15044;DHT22;7619;48.562;8.910;2022-11-02T01:18:13;5.80;99.90
15044;DHT22;7619;48.562;8.910;2022-11-02T01:20:42;5.70;99.90
15044;DHT22;7619;48.562;8.910;2022-11-02T01:23:11;5.60;99.90
15044;DHT22;7619;48.562;8.910;2022-11-02T01:25:45;5.60;99.90
15044;DHT22;7619;48.562;8.910;2022-11-02T01:28:14;5.60;99.90
15044;DHT22;7619;48.562;8.910;2022-11-02T01:30:42;5.70;99.90
15044;DHT22;7619;48.562;8.910;2022-11-02T01:35:39;5.90;99.90
15044;DHT22;7619;48.562;8.910;2022-11-02T01:40:38;6.00;99.90
15044;DHT22;7619;48.562;8.910;2022-11-02T01:43:22;6.10;99.90
15044;DHT22;7619;48.562;8.910;2022-11-02T01:45:54;6.00;99.90
15044;DHT22;7619;48.562;8.910;2022-11-02T01:48:26;6.00;99.90
15044;DHT22;7619;48.562;8.910;2022-11-02T01:53:25;5.80;99.90
15044;DHT22;7619;48.562;8.910;2022-11-02T02:00:50;5.80;99.90
15044;DHT22;7619;48.562;8.910;2022-11-02T02:03:19;5.90;99.90
15044;DHT22;7619;48.562;8.910;2022-11-02T02:05:52;6.00;99.90
15044;DHT22;7619;48.562;8.910;2022-11-02T02:08:23;6.00;99.90
15044;DHT22;7619;48.562;8.910;2022-11-02T02:10:55;5.90;99.90
15044;DHT22;7619;48.562;8.910;2022-11-02T02:13:26;6.00;99.90
15044;DHT22;7619;48.562;8.910;2022-11-02T02:15:59;6.00;99.90
15044;DHT22;7619;48.562;8.910;2022-11-02T02:21:15;5.90;99.90
15044;DHT22;7619;48.562;8.910;2022-11-02T02:23:59;5.80;99.90
15044;DHT22;7619;48.562;8.910;2022-11-02T02:27:01;5.80;99.90
15044;DHT22;7619;48.562;8.910;2022-11-02T02:29:33;5.80;99.90
15044;DHT22;7619;48.562;8.910;2022-11-02T02:37:15;5.80;99.90
15044;DHT22;7619;48.562;8.910;2022-11-02T02:42:24;5.80;99.90
15044;DHT22;7619;48.562;8.910;2022-11-02T02:44:57;5.70;99.90
15044;DHT22;7619;48.562;8.910;2022-11-02T02:47:28;5.70;99.90
15044;DHT22;7619;48.562;8.910;2022-11-02T02:50:02;5.70;99.90
15044;DHT22;7619;48.562;8.910;2022-11-02T02:52:32;5.70;99.90
15044;DHT22;7619;48.562;8.910;2022-11-02T02:55:03;5.80;99.90
15044;DHT22;7619;48.562;8.910;2022-11-02T02:57:34;5.80;99.90
15044;DHT22;7619;48.562;8.910;2022-11-02T03:00:12;5.90;99.90
15044;DHT22;7619;48.562;8.910;2022-11-02T03:02:42;6.00;99.90
15044;DHT22;7619;48.562;8.910;2022-11-02T03:05:25;6.00;99.90
15044;DHT22;7619;48.562;8.910;2022-11-02T03:07:55;6.00;99.90
15044;DHT22;7619;48.562;8.910;2022-11-02T03:13:00;6.10;99.90
15044;DHT22;7619;48.562;8.910;2022-11-02T03:18:54;6.10;99.90
15044;DHT22;7619;48.562;8.910;2022-11-02T03:31:32;5.80;99.90
15044;DHT22;7619;48.562;8.910;2022-11-02T03:34:08;5.70;99.90
15044;DHT22;7619;48.562;8.910;2022-11-02T03:36:36;5.70;99.90
15044;DHT22;7619;48.562;8.910;2022-11-02T03:44:06;5.80;99.90
15044;DHT22;7619;48.562;8.910;2022-11-02T03:49:09;5.70;99.90
15044;DHT22;7619;48.562;8.910;2022-11-02T03:51:40;5.70;99.90
15044;DHT22;7619;48.562;8.910;2022-11-02T03:56:41;5.70;99.90
15044;DHT22;7619;48.562;8.910;2022-11-02T03:59:12;5.70;99.90
15044;DHT22;7619;48.562;8.910;2022-11-02T04:04:10;5.70;99.90
15044;DHT22;7619;48.562;8.910;2022-11-02T04:06:40;5.80;99.90
15044;DHT22;7619;48.562;8.910;2022-11-02T04:09:09;5.80;99.90
15044;DHT22;7619;48.562;8.910;2022-11-02T04:11:39;5.90;99.90
15044;DHT22;7619;48.562;8.910;2022-11-02T04:14:25;5.90;99.90
15044;DHT22;7619;48.562;8.910;2022-11-02T04:17:09;5.90;99.90
15044;DHT22;7619;48.562;8.910;2022-11-02T04:19:55;5.90;99.90
15044;DHT22;7619;48.562;8.910;2022-11-02T04:27:46;5.90;99.90
15044;DHT22;7619;48.562;8.910;2022-11-02T04:30:17;5.90;99.90
15044;DHT22;7619;48.562;8.910;2022-11-02T04:40:42;5.90;99.90
15044;DHT22;7619;48.562;8.910;2022-11-02T04:43:10;6.00;99.90
15044;DHT22;7619;48.562;8.910;2022-11-02T04:50:36;5.70;99.90
15044;DHT22;7619;48.562;8.910;2022-11-02T05:00:38;5.50;99.90
15044;DHT22;7619;48.562;8.910;2022-11-02T05:11:00;5.60;99.90
15044;DHT22;7619;48.562;8.910;2022-11-02T05:13:29;5.60;99.90
15044;DHT22;7619;48.562;8.910;2022-11-02T05:15:59;5.60;99.90
15044;DHT22;7619;48.562;8.910;2022-11-02T05:18:28;5.60;99.90
15044;DHT22;7619;48.562;8.910;2022-11-02T05:20:59;5.50;99.90
15044;DHT22;7619;48.562;8.910;2022-11-02T05:23:29;5.40;99.90
15044;DHT22;7619;48.562;8.910;2022-11-02T05:25:59;5.30;99.90
15044;DHT22;7619;48.562;8.910;2022-11-02T05:28:29;5.20;99.90
15044;DHT22;7619;48.562;8.910;2022-11-02T05:31:00;5.40;99.90
15044;DHT22;7619;48.562;8.910;2022-11-02T05:33:29;5.40;99.90
15044;DHT22;7619;48.562;8.910;2022-11-02T05:35:59;5.40;99.90
15044;DHT22;7619;48.562;8.910;2022-11-02T05:38:29;5.10;99.90
15044;DHT22;7619;48.562;8.910;2022-11-02T05:40:58;5.10;99.90
15044;DHT22;7619;48.562;8.910;2022-11-02T05:43:28;5.10;99.90
15044;DHT22;7619;48.562;8.910;2022-11-02T05:45:58;5.10;99.90
15044;DHT22;7619;48.562;8.910;2022-11-02T05:48:29;5.10;99.90
15044;DHT22;7619;48.562;8.910;2022-11-02T05:51:00;5.20;99.90
15044;DHT22;7619;48.562;8.910;2022-11-02T05:53:29;5.30;99.90
15044;DHT22;7619;48.562;8.910;2022-11-02T05:56:01;5.30;99.90
15044;DHT22;7619;48.562;8.910;2022-11-02T05:58:31;5.60;99.90
15044;DHT22;7619;48.562;8.910;2022-11-02T06:01:01;5.60;99.90
15044;DHT22;7619;48.562;8.910;2022-11-02T06:03:31;5.70;99.90
15044;DHT22;7619;48.562;8.910;2022-11-02T06:06:01;5.70;99.90
15044;DHT22;7619;48.562;8.910;2022-11-02T06:08:32;5.80;99.90
15044;DHT22;7619;48.562;8.910;2022-11-02T06:11:04;5.80;99.90
15044;DHT22;7619;48.562;8.910;2022-11-02T06:13:33;5.70;99.90
15044;DHT22;7619;48.562;8.910;2022-11-02T06:16:05;5.60;99.90
15044;DHT22;7619;48.562;8.910;2022-11-02T06:18:36;5.60;99.90
15044;DHT22;7619;48.562;8.910;2022-11-02T06:21:06;5.60;99.90
15044;DHT22;7619;48.562;8.910;2022-11-02T06:23:35;5.60;99.90
15044;DHT22;7619;48.562;8.910;2022-11-02T06:26:05;5.60;99.90
15044;DHT22;7619;48.562;8.910;2022-11-02T06:28:34;5.60;99.90
15044;DHT22;7619;48.562;8.910;2022-11-02T06:31:03;5.70;99.90
15044;DHT22;7619;48.562;8.910;2022-11-02T06:33:32;5.60;99.90
15044;DHT22;7619;48.562;8.910;2022-11-02T06:36:01;5.50;99.90
15044;DHT22;7619;48.562;8.910;2022-11-02T06:38:30;5.50;99.90
15044;DHT22;7619;48.562;8.910;2022-11-02T06:41:01;5.60;99.90
15044;DHT22;7619;48.562;8.910;2022-11-02T06:43:30;5.70;99.90
15044;DHT22;7619;48.562;8.910;2022-11-02T06:45:59;5.90;99.90
15044;DHT22;7619;48.562;8.910;2022-11-02T06:48:28;6.20;99.90
15044;DHT22;7619;48.562;8.910;2022-11-02T06:50:57;6.20;99.90
15044;DHT22;7619;48.562;8.910;2022-11-02T06:53:26;6.40;99.90
15044;DHT22;7619;48.562;8.910;2022-11-02T06:55:55;6.50;99.90
15044;DHT22;7619;48.562;8.910;2022-11-02T06:58:25;6.70;99.90
15044;DHT22;7619;48.562;8.910;2022-11-02T07:00:58;6.80;99.90
15044;DHT22;7619;48.562;8.910;2022-11-02T07:03:27;7.00;99.90
15044;DHT22;7619;48.562;8.910;2022-11-02T07:05:56;7.20;99.90
15044;DHT22;7619;48.562;8.910;2022-11-02T07:08:26;7.30;99.90
15044;DHT22;7619;48.562;8.910;2022-11-02T07:10:55;7.30;99.90
15044;DHT22;7619;48.562;8.910;2022-11-02T07:13:24;7.20;99.90
15044;DHT22;7619;48.562;8.910;2022-11-02T07:15:53;7.30;99.90
15044;DHT22;7619;48.562;8.910;2022-11-02T07:20:59;7.50;99.90
15044;DHT22;7619;48.562;8.910;2022-11-02T07:23:29;7.60;99.90
15044;DHT22;7619;48.562;8.910;2022-11-02T07:26:00;7.70;99.90
15044;DHT22;7619;48.562;8.910;2022-11-02T07:28:29;7.90;99.90
15044;DHT22;7619;48.562;8.910;2022-11-02T07:30:57;8.00;99.90
15044;DHT22;7619;48.562;8.910;2022-11-02T07:33:26;8.10;99.90
15044;DHT22;7619;48.562;8.910;2022-11-02T07:35:55;8.20;99.90
15044;DHT22;7619;48.562;8.910;2022-11-02T07:38:24;8.30;99.90
15044;DHT22;7619;48.562;8.910;2022-11-02T07:40:53;8.40;99.90
15044;DHT22;7619;48.562;8.910;2022-11-02T07:43:22;8.50;99.90
15044;DHT22;7619;48.562;8.910;2022-11-02T07:45:50;8.60;99.90
15044;DHT22;7619;48.562;8.910;2022-11-02T07:48:19;8.80;99.90
15044;DHT22;7619;48.562;8.910;2022-11-02T07:50:48;8.90;99.90
15044;DHT22;7619;48.562;8.910;2022-11-02T07:55:54;9.20;99.90
15044;DHT22;7619;48.562;8.910;2022-11-02T07:58:23;9.40;99.90
15044;DHT22;7619;48.562;8.910;2022-11-02T08:00:56;9.60;99.90
15044;DHT22;7619;48.562;8.910;2022-11-02T08:03:24;9.80;99.90
15044;DHT22;7619;48.562;8.910;2022-11-02T08:05:53;10.20;99.90
15044;DHT22;7619;48.562;8.910;2022-11-02T08:08:23;10.40;99.90
15044;DHT22;7619;48.562;8.910;2022-11-02T08:10:52;10.70;99.90
15044;DHT22;7619;48.562;8.910;2022-11-02T08:13:22;10.70;99.90
15044;DHT22;7619;48.562;8.910;2022-11-02T08:15:53;10.90;99.90
15044;DHT22;7619;48.562;8.910;2022-11-02T08:18:24;11.10;99.90
15044;DHT22;7619;48.562;8.910;2022-11-02T08:20:55;11.20;99.90
15044;DHT22;7619;48.562;8.910;2022-11-02T08:23:25;11.50;99.90
15044;DHT22;7619;48.562;8.910;2022-11-02T08:25:57;11.70;99.90
15044;DHT22;7619;48.562;8.910;2022-11-02T08:28:27;11.90;99.90
15044;DHT22;7619;48.562;8.910;2022-11-02T08:30:58;11.90;99.90
15044;DHT22;7619;48.562;8.910;2022-11-02T08:33:27;12.20;99.90
15044;DHT22;7619;48.562;8.910;2022-11-02T08:36:00;12.30;99.90
15044;DHT22;7619;48.562;8.910;2022-11-02T08:38:33;12.40;99.90
15044;DHT22;7619;48.562;8.910;2022-11-02T08:41:02;12.60;99.90
15044;DHT22;7619;48.562;8.910;2022-11-02T08:43:31;12.90;99.90
15044;DHT22;7619;48.562;8.910;2022-11-02T08:46:00;13.00;99.90
15044;DHT22;7619;48.562;8.910;2022-11-02T08:48:30;13.00;99.90
15044;DHT22;7619;48.562;8.910;2022-11-02T08:50:59;13.00;99.90
15044;DHT22;7619;48.562;8.910;2022-11-02T08:53:29;13.00;99.90
15044;DHT22;7619;48.562;8.910;2022-11-02T08:55:58;13.10;99.90
15044;DHT22;7619;48.562;8.910;2022-11-02T08:58:27;13.30;99.90
15044;DHT22;7619;48.562;8.910;2022-11-02T09:00:55;13.30;99.90
15044;DHT22;7619;48.562;8.910;2022-11-02T09:03:24;13.50;99.90
15044;DHT22;7619;48.562;8.910;2022-11-02T09:05:58;13.70;99.90
15044;DHT22;7619;48.562;8.910;2022-11-02T09:08:28;13.80;99.90
15044;DHT22;7619;48.562;8.910;2022-11-02T09:10:59;14.00;99.90
15044;DHT22;7619;48.562;8.910;2022-11-02T09:16:07;14.10;99.90
15044;DHT22;7619;48.562;8.910;2022-11-02T09:18:37;14.00;99.90
15044;DHT22;7619;48.562;8.910;2022-11-02T09:21:06;14.00;99.90
15044;DHT22;7619;48.562;8.910;2022-11-02T09:23:41;13.90;99.90
15044;DHT22;7619;48.562;8.910;2022-11-02T09:28:49;14.00;99.90
15044;DHT22;7619;48.562;8.910;2022-11-02T09:31:18;14.10;99.90
15044;DHT22;7619;48.562;8.910;2022-11-02T09:33:47;14.00;99.90
15044;DHT22;7619;48.562;8.910;2022-11-02T09:36:16;14.10;85.70
15044;DHT22;7619;48.562;8.910;2022-11-02T09:38:45;14.00;99.90
15044;DHT22;7619;48.562;8.910;2022-11-02T09:43:58;13.90;1.00
15044;DHT22;7619;48.562;8.910;2022-11-02T09:46:30;13.80;1.00
15044;DHT22;7619;48.562;8.910;2022-11-02T09:51:41;13.80;99.90
15044;DHT22;7619;48.562;8.910;2022-11-02T09:54:14;13.80;99.90
15044;DHT22;7619;48.562;8.910;2022-11-02T09:56:44;13.90;37.80
15044;DHT22;7619;48.562;8.910;2022-11-02T09:59:16;13.90;99.90
15044;DHT22;7619;48.562;8.910;2022-11-02T10:01:54;14.00;1.00
15044;DHT22;7619;48.562;8.910;2022-11-02T10:07:19;14.20;99.90
15044;DHT22;7619;48.562;8.910;2022-11-02T10:09:52;14.20;86.10
15044;DHT22;7619;48.562;8.910;2022-11-02T10:12:24;14.30;1.00
15044;DHT22;7619;48.562;8.910;2022-11-02T10:14:58;14.40;99.90
15044;DHT22;7619;48.562;8.910;2022-11-02T10:20:09;14.60;1.00
15044;DHT22;7619;48.562;8.910;2022-11-02T10:22:40;14.80;99.90
15044;DHT22;7619;48.562;8.910;2022-11-02T10:27:52;15.00;1.00
15044;DHT22;7619;48.562;8.910;2022-11-02T10:30:21;15.00;99.90
15044;DHT22;7619;48.562;8.910;2022-11-02T10:35:35;15.10;99.90
15044;DHT22;7619;48.562;8.910;2022-11-02T10:38:09;15.00;15.00
15044;DHT22;7619;48.562;8.910;2022-11-02T10:49:37;14.50;1.00
15044;DHT22;7619;48.562;8.910;2022-11-02T10:52:09;14.60;1.00
15044;DHT22;7619;48.562;8.910;2022-11-02T10:54:39;14.60;1.00
15044;DHT22;7619;48.562;8.910;2022-11-02T10:57:11;14.50;1.00
15044;DHT22;7619;48.562;8.910;2022-11-02T10:59:41;14.50;1.00
15044;DHT22;7619;48.562;8.910;2022-11-02T11:02:22;14.60;1.00
15044;DHT22;7619;48.562;8.910;2022-11-02T11:04:53;14.60;66.20
15044;DHT22;7619;48.562;8.910;2022-11-02T11:07:25;14.80;77.10
15044;DHT22;7619;48.562;8.910;2022-11-02T11:09:56;14.80;1.00
15044;DHT22;7619;48.562;8.910;2022-11-02T11:12:28;14.80;1.00
15044;DHT22;7619;48.562;8.910;2022-11-02T11:14:59;14.80;1.00
15044;DHT22;7619;48.562;8.910;2022-11-02T11:17:31;14.90;1.00
15044;DHT22;7619;48.562;8.910;2022-11-02T11:20:01;15.10;1.00
15044;DHT22;7619;48.562;8.910;2022-11-02T11:25:24;15.00;1.00
15044;DHT22;7619;48.562;8.910;2022-11-02T11:30:33;14.90;99.90
15044;DHT22;7619;48.562;8.910;2022-11-02T11:35:41;14.60;99.90
15044;DHT22;7619;48.562;8.910;2022-11-02T11:38:14;14.50;1.00
15044;DHT22;7619;48.562;8.910;2022-11-02T11:43:23;14.90;99.90
15044;DHT22;7619;48.562;8.910;2022-11-02T11:45:58;15.30;99.90
15044;DHT22;7619;48.562;8.910;2022-11-02T11:48:31;15.60;99.90
15044;DHT22;7619;48.562;8.910;2022-11-02T11:51:01;16.10;99.90
15044;DHT22;7619;48.562;8.910;2022-11-02T11:53:31;16.30;1.00
15044;DHT22;7619;48.562;8.910;2022-11-02T11:58:36;16.70;1.00
15044;DHT22;7619;48.562;8.910;2022-11-02T12:01:13;17.00;1.00
15044;DHT22;7619;48.562;8.910;2022-11-02T12:03:51;17.00;1.00
15044;DHT22;7619;48.562;8.910;2022-11-02T12:06:26;16.60;1.00
15044;DHT22;7619;48.562;8.910;2022-11-02T12:08:58;16.60;99.90
15044;DHT22;7619;48.562;8.910;2022-11-02T12:11:35;16.50;99.90
15044;DHT22;7619;48.562;8.910;2022-11-02T12:14:11;16.60;99.90
15044;DHT22;7619;48.562;8.910;2022-11-02T12:16:56;16.60;99.90
15044;DHT22;7619;48.562;8.910;2022-11-02T12:19:29;16.50;99.90
15044;DHT22;7619;48.562;8.910;2022-11-02T12:22:04;16.30;99.90
15044;DHT22;7619;48.562;8.910;2022-11-02T12:25:02;16.30;99.90
15044;DHT22;7619;48.562;8.910;2022-11-02T12:27:38;16.10;99.90
15044;DHT22;7619;48.562;8.910;2022-11-02T12:30:14;16.10;99.90
15044;DHT22;7619;48.562;8.910;2022-11-02T12:33:25;16.20;99.90
15044;DHT22;7619;48.562;8.910;2022-11-02T12:36:01;16.20;99.90
15044;DHT22;7619;48.562;8.910;2022-11-02T12:38:55;16.40;99.90
15044;DHT22;7619;48.562;8.910;2022-11-02T12:41:36;16.40;99.90
15044;DHT22;7619;48.562;8.910;2022-11-02T12:44:14;16.60;99.90
15044;DHT22;7619;48.562;8.910;2022-11-02T12:46:45;16.60;99.90
15044;DHT22;7619;48.562;8.910;2022-11-02T12:49:24;16.60;99.90
15044;DHT22;7619;48.562;8.910;2022-11-02T12:51:57;16.50;99.90
15044;DHT22;7619;48.562;8.910;2022-11-02T12:54:27;16.40;99.90
15044;DHT22;7619;48.562;8.910;2022-11-02T12:56:57;16.40;99.90
15044;DHT22;7619;48.562;8.910;2022-11-02T12:59:29;16.50;99.90
15044;DHT22;7619;48.562;8.910;2022-11-02T13:04:43;16.40;99.90
15044;DHT22;7619;48.562;8.910;2022-11-02T13:07:13;16.40;99.90
15044;DHT22;7619;48.562;8.910;2022-11-02T13:09:46;16.60;99.90
15044;DHT22;7619;48.562;8.910;2022-11-02T13:12:16;16.70;99.90
15044;DHT22;7619;48.562;8.910;2022-11-02T13:14:47;16.60;99.90
15044;DHT22;7619;48.562;8.910;2022-11-02T13:17:19;16.60;99.90
15044;DHT22;7619;48.562;8.910;2022-11-02T13:22:32;16.50;99.90
15044;DHT22;7619;48.562;8.910;2022-11-02T13:25:05;16.50;99.90
15044;DHT22;7619;48.562;8.910;2022-11-02T13:27:37;16.30;99.90
15044;DHT22;7619;48.562;8.910;2022-11-02T13:30:13;16.30;99.90
15044;DHT22;7619;48.562;8.910;2022-11-02T13:32:44;16.30;99.90
15044;DHT22;7619;48.562;8.910;2022-11-02T13:35:19;16.30;99.90
15044;DHT22;7619;48.562;8.910;2022-11-02T13:37:51;16.30;99.90
15044;DHT22;7619;48.562;8.910;2022-11-02T13:40:24;16.30;99.90
15044;DHT22;7619;48.562;8.910;2022-11-02T13:43:16;16.20;99.90
15044;DHT22;7619;48.562;8.910;2022-11-02T13:46:08;16.10;99.90
15044;DHT22;7619;48.562;8.910;2022-11-02T13:48:46;16.10;99.90
15044;DHT22;7619;48.562;8.910;2022-11-02T13:53:59;16.10;76.30
15044;DHT22;7619;48.562;8.910;2022-11-02T13:56:30;16.10;99.90
15044;DHT22;7619;48.562;8.910;2022-11-02T13:59:03;16.10;99.90
15044;DHT22;7619;48.562;8.910;2022-11-02T14:01:36;16.10;99.90
15044;DHT22;7619;48.562;8.910;2022-11-02T14:04:07;16.10;99.90
15044;DHT22;7619;48.562;8.910;2022-11-02T14:06:48;16.10;99.90
15044;DHT22;7619;48.562;8.910;2022-11-02T14:09:31;16.10;99.90
15044;DHT22;7619;48.562;8.910;2022-11-02T14:18:29;16.00;99.90
15044;DHT22;7619;48.562;8.910;2022-11-02T14:20:59;16.00;69.50
15044;DHT22;7619;48.562;8.910;2022-11-02T14:23:37;15.80;95.20
15044;DHT22;7619;48.562;8.910;2022-11-02T14:26:32;15.90;90.90
15044;DHT22;7619;48.562;8.910;2022-11-02T14:29:08;16.00;93.70
15044;DHT22;7619;48.562;8.910;2022-11-02T14:31:49;16.00;87.90
15044;DHT22;7619;48.562;8.910;2022-11-02T14:37:36;16.00;69.60
15044;DHT22;7619;48.562;8.910;2022-11-02T14:43:07;15.80;85.00
15044;DHT22;7619;48.562;8.910;2022-11-02T14:45:47;15.80;91.50
15044;DHT22;7619;48.562;8.910;2022-11-02T14:48:17;15.80;73.00
15044;DHT22;7619;48.562;8.910;2022-11-02T14:51:00;15.80;92.70
15044;DHT22;7619;48.562;8.910;2022-11-02T14:56:51;19.70;99.90
15044;DHT22;7619;48.562;8.910;2022-11-02T14:59:28;16.10;99.90
15044;DHT22;7619;48.562;8.910;2022-11-02T15:02:00;16.10;99.90
15044;DHT22;7619;48.562;8.910;2022-11-02T15:04:31;16.10;99.90
15044;DHT22;7619;48.562;8.910;2022-11-02T15:07:03;16.00;99.90
15044;DHT22;7619;48.562;8.910;2022-11-02T15:09:53;15.70;84.80
15044;DHT22;7619;48.562;8.910;2022-11-02T15:12:35;15.60;41.90
15044;DHT22;7619;48.562;8.910;2022-11-02T15:15:32;15.40;36.30
15044;DHT22;7619;48.562;8.910;2022-11-02T15:18:21;15.30;17.10
15044;DHT22;7619;48.562;8.910;2022-11-02T15:21:26;15.10;18.40
15044;DHT22;7619;48.562;8.910;2022-11-02T15:26:59;15.00;3.30
15044;DHT22;7619;48.562;8.910;2022-11-02T15:29:38;14.90;1.00
15044;DHT22;7619;48.562;8.910;2022-11-02T15:32:13;14.80;1.00
15044;DHT22;7619;48.562;8.910;2022-11-02T15:37:25;14.60;1.00
15044;DHT22;7619;48.562;8.910;2022-11-02T15:40:01;14.50;1.00
15044;DHT22;7619;48.562;8.910;2022-11-02T15:45:35;14.10;1.00
15044;DHT22;7619;48.562;8.910;2022-11-02T15:48:13;13.90;1.00
15044;DHT22;7619;48.562;8.910;2022-11-02T15:50:46;13.70;1.00
15044;DHT22;7619;48.562;8.910;2022-11-02T15:53:37;13.50;1.00
15044;DHT22;7619;48.562;8.910;2022-11-02T15:56:27;13.30;1.00
15044;DHT22;7619;48.562;8.910;2022-11-02T16:02:26;12.90;4.70
15044;DHT22;7619;48.562;8.910;2022-11-02T16:04:57;12.70;71.40
15044;DHT22;7619;48.562;8.910;2022-11-02T16:10:31;12.50;99.90
15044;DHT22;7619;48.562;8.910;2022-11-02T16:13:13;12.60;99.90
15044;DHT22;7619;48.562;8.910;2022-11-02T16:15:44;12.70;1.00
15044;DHT22;7619;48.562;8.910;2022-11-02T16:18:25;12.50;1.00
15044;DHT22;7619;48.562;8.910;2022-11-02T16:21:00;12.40;1.00
15044;DHT22;7619;48.562;8.910;2022-11-02T16:23:37;12.20;65.40
15044;DHT22;7619;48.562;8.910;2022-11-02T16:26:14;11.90;1.00
15044;DHT22;7619;48.562;8.910;2022-11-02T16:28:49;11.60;5.40
15044;DHT22;7619;48.562;8.910;2022-11-02T16:34:04;11.40;1.00
15044;DHT22;7619;48.562;8.910;2022-11-02T16:36:37;11.30;99.90
15044;DHT22;7619;48.562;8.910;2022-11-02T16:39:13;11.30;1.00
15044;DHT22;7619;48.562;8.910;2022-11-02T16:41:49;11.10;96.30
15044;DHT22;7619;48.562;8.910;2022-11-02T16:44:22;10.90;1.00
15044;DHT22;7619;48.562;8.910;2022-11-02T16:46:55;10.80;99.90
15044;DHT22;7619;48.562;8.910;2022-11-02T16:52:17;10.70;1.00
15044;DHT22;7619;48.562;8.910;2022-11-02T16:54:47;10.60;1.00
15044;DHT22;7619;48.562;8.910;2022-11-02T16:57:20;10.40;1.00
15044;DHT22;7619;48.562;8.910;2022-11-02T17:02:56;10.10;99.90
15044;DHT22;7619;48.562;8.910;2022-11-02T17:05:27;10.10;1.00
15044;DHT22;7619;48.562;8.910;2022-11-02T17:07:58;10.20;1.00
15044;DHT22;7619;48.562;8.910;2022-11-02T17:10:29;10.20;99.90
15044;DHT22;7619;48.562;8.910;2022-11-02T17:13:14;10.10;1.00
15044;DHT22;7619;48.562;8.910;2022-11-02T17:15:47;9.90;99.90
15044;DHT22;7619;48.562;8.910;2022-11-02T17:18:27;9.70;99.90
15044;DHT22;7619;48.562;8.910;2022-11-02T17:21:22;9.70;99.90
15044;DHT22;7619;48.562;8.910;2022-11-02T17:23:54;9.60;1.00
15044;DHT22;7619;48.562;8.910;2022-11-02T17:26:27;9.50;1.00
15044;DHT22;7619;48.562;8.910;2022-11-02T17:28:58;9.40;1.00
15044;DHT22;7619;48.562;8.910;2022-11-02T17:31:33;9.20;99.90
15044;DHT22;7619;48.562;8.910;2022-11-02T17:34:07;9.10;99.90
15044;DHT22;7619;48.562;8.910;2022-11-02T17:36:42;9.00;99.90
15044;DHT22;7619;48.562;8.910;2022-11-02T17:39:31;9.70;99.90
15044;DHT22;7619;48.562;8.910;2022-11-02T17:42:58;10.10;99.90
15044;DHT22;7619;48.562;8.910;2022-11-02T17:45:43;9.60;99.90
15044;DHT22;7619;48.562;8.910;2022-11-02T17:48:13;9.30;99.90
15044;DHT22;7619;48.562;8.910;2022-11-02T17:50:42;9.10;99.90
15044;DHT22;7619;48.562;8.910;2022-11-02T17:53:12;9.00;99.90
15044;DHT22;7619;48.562;8.910;2022-11-02T17:56:02;8.80;99.90
15044;DHT22;7619;48.562;8.910;2022-11-02T17:58:37;8.70;99.90
15044;DHT22;7619;48.562;8.910;2022-11-02T18:01:08;8.60;99.90
15044;DHT22;7619;48.562;8.910;2022-11-02T18:03:38;8.60;99.90
15044;DHT22;7619;48.562;8.910;2022-11-02T18:06:07;8.50;99.90
15044;DHT22;7619;48.562;8.910;2022-11-02T18:08:36;8.40;99.90
15044;DHT22;7619;48.562;8.910;2022-11-02T18:11:24;8.30;99.90
15044;DHT22;7619;48.562;8.910;2022-11-02T18:13:53;8.20;99.90
15044;DHT22;7619;48.562;8.910;2022-11-02T18:16:22;8.20;99.90
15044;DHT22;7619;48.562;8.910;2022-11-02T18:18:51;8.10;99.90
15044;DHT22;7619;48.562;8.910;2022-11-02T18:21:20;8.10;99.90
15044;DHT22;7619;48.562;8.910;2022-11-02T18:23:49;8.00;99.90
15044;DHT22;7619;48.562;8.910;2022-11-02T18:26:18;7.90;99.90
15044;DHT22;7619;48.562;8.910;2022-11-02T18:28:47;7.80;99.90
15044;DHT22;7619;48.562;8.910;2022-11-02T18:31:16;7.70;99.90
15044;DHT22;7619;48.562;8.910;2022-11-02T18:33:44;7.70;99.90
15044;DHT22;7619;48.562;8.910;2022-11-02T18:36:14;7.60;99.90
15044;DHT22;7619;48.562;8.910;2022-11-02T18:38:43;7.50;99.90
15044;DHT22;7619;48.562;8.910;2022-11-02T18:41:12;7.50;99.90
15044;DHT22;7619;48.562;8.910;2022-11-02T18:43:59;7.50;99.90
15044;DHT22;7619;48.562;8.910;2022-11-02T18:46:28;7.50;99.90
15044;DHT22;7619;48.562;8.910;2022-11-02T18:48:58;7.40;99.90
15044;DHT22;7619;48.562;8.910;2022-11-02T18:51:27;7.40;99.90
15044;DHT22;7619;48.562;8.910;2022-11-02T18:53:57;7.40;99.90
15044;DHT22;7619;48.562;8.910;2022-11-02T18:56:26;7.30;99.90
15044;DHT22;7619;48.562;8.910;2022-11-02T18:58:56;7.30;99.90
15044;DHT22;7619;48.562;8.910;2022-11-02T19:01:25;7.30;99.90
15044;DHT22;7619;48.562;8.910;2022-11-02T19:03:56;7.30;99.90
15044;DHT22;7619;48.562;8.910;2022-11-02T19:06:27;7.30;99.90
15044;DHT22;7619;48.562;8.910;2022-11-02T19:09:15;7.40;99.90
15044;DHT22;7619;48.562;8.910;2022-11-02T19:11:49;7.20;99.90
15044;DHT22;7619;48.562;8.910;2022-11-02T19:14:20;7.10;99.90
15044;DHT22;7619;48.562;8.910;2022-11-02T19:16:49;7.00;99.90
15044;DHT22;7619;48.562;8.910;2022-11-02T19:19:18;7.00;99.90
15044;DHT22;7619;48.562;8.910;2022-11-02T19:21:48;6.90;99.90
15044;DHT22;7619;48.562;8.910;2022-11-02T19:24:16;6.90;99.90
15044;DHT22;7619;48.562;8.910;2022-11-02T19:26:47;6.80;99.90
15044;DHT22;7619;48.562;8.910;2022-11-02T19:29:16;6.80;99.90
15044;DHT22;7619;48.562;8.910;2022-11-02T19:31:46;6.80;99.90
15044;DHT22;7619;48.562;8.910;2022-11-02T19:34:15;6.80;99.90
15044;DHT22;7619;48.562;8.910;2022-11-02T19:36:44;6.70;99.90
15044;DHT22;7619;48.562;8.910;2022-11-02T19:39:12;6.70;99.90
15044;DHT22;7619;48.562;8.910;2022-11-02T19:41:41;6.70;99.90
15044;DHT22;7619;48.562;8.910;2022-11-02T19:44:10;6.60;99.90
15044;DHT22;7619;48.562;8.910;2022-11-02T19:46:39;6.60;99.90
15044;DHT22;7619;48.562;8.910;2022-11-02T19:49:08;6.60;99.90
15044;DHT22;7619;48.562;8.910;2022-11-02T19:51:38;6.50;99.90
15044;DHT22;7619;48.562;8.910;2022-11-02T19:54:07;6.30;99.90
15044;DHT22;7619;48.562;8.910;2022-11-02T19:56:37;6.30;99.90
15044;DHT22;7619;48.562;8.910;2022-11-02T19:59:06;6.30;99.90
15044;DHT22;7619;48.562;8.910;2022-11-02T20:01:36;6.30;99.90
15044;DHT22;7619;48.562;8.910;2022-11-02T20:04:06;6.20;99.90